Time;durP1;ratioP1;P1;durP2;ratioP2;P2;SDS_P1;SDS_P2;PMS_P1;PMS_P2;Temp;Humidity;BMP_temperature;BMP_pressure;BME280_temperature;BME280_humidity;BME280_pressure;Samples;Min_cycle;Max_cycle;Signal;HPM_P1;HPM_P2
2022/06/11 00:00:17;;;;;;;12.88;7.75;;;;;;;14.13;67.16;99008.13;5109094;28;20032;-73
2022/06/11 00:02:43;;;;;;;15.25;7.90;;;;;;;14.08;67.12;99006.28;5090057;28;20077;-73
2022/06/11 00:05:08;;;;;;;15.00;8.88;;;;;;;14.07;67.52;99004.66;5108974;28;20027;-73
2022/06/11 00:07:34;;;;;;;14.82;8.93;;;;;;;14.05;67.25;98998.63;5088226;28;20040;-73
2022/06/11 00:10:00;;;;;;;13.68;7.53;;;;;;;14.06;67.65;98999.47;5089700;28;20522;-73
2022/06/11 00:12:26;;;;;;;13.93;7.60;;;;;;;14.04;67.80;98996.19;5089880;28;20016;-73
2022/06/11 00:14:53;;;;;;;12.18;7.63;;;;;;;14.02;67.79;99001.19;5090975;28;20023;-73
2022/06/11 00:17:21;;;;;;;10.65;7.57;;;;;;;13.98;67.87;98989.94;5089108;28;20118;-73
2022/06/11 00:19:47;;;;;;;11.07;7.25;;;;;;;13.96;67.93;98998.53;5088323;28;20074;-73
2022/06/11 00:22:14;;;;;;;14.45;7.63;;;;;;;13.97;68.02;98997.41;5084371;28;20028;-74
2022/06/11 00:24:40;;;;;;;10.65;7.95;;;;;;;13.98;68.08;98999.03;5088009;28;20087;-73
2022/06/11 00:27:07;;;;;;;11.75;7.65;;;;;;;13.99;68.01;99000.69;5088141;28;20067;-73
2022/06/11 00:29:34;;;;;;;9.48;6.88;;;;;;;14.01;68.56;98992.09;5088110;28;20020;-73
2022/06/11 00:32:00;;;;;;;8.43;6.80;;;;;;;14.01;68.35;98999.56;5085982;28;20059;-73
2022/06/11 00:34:26;;;;;;;9.55;7.50;;;;;;;13.99;68.54;99002.59;5088045;28;20320;-73
2022/06/11 00:36:52;;;;;;;8.30;6.78;;;;;;;13.97;68.70;99002.09;5087604;28;20020;-74
2022/06/11 00:39:21;;;;;;;9.82;6.95;;;;;;;13.97;68.33;99002.09;5089209;28;20020;-74
2022/06/11 00:41:52;;;;;;;9.68;7.10;;;;;;;13.96;68.69;98997.69;5085374;28;20107;-74
2022/06/11 00:44:18;;;;;;;8.75;6.53;;;;;;;13.92;68.36;99003.00;5087821;28;20024;-76
2022/06/11 00:46:54;;;;;;;7.68;6.88;;;;;;;13.90;68.47;99005.25;5087967;28;20122;-76
2022/06/11 00:49:45;;;;;;;8.85;6.60;;;;;;;13.88;68.41;99006.66;5091245;28;20024;-74
2022/06/11 00:52:20;;;;;;;9.20;6.95;;;;;;;13.86;68.61;99014.47;5085801;28;20070;-74
2022/06/11 00:55:06;;;;;;;9.00;6.90;;;;;;;13.80;68.28;99011.78;5088501;28;20206;-74
2022/06/11 00:57:38;;;;;;;8.63;7.07;;;;;;;13.77;68.60;99017.91;5090426;28;20051;-73
2022/06/11 01:00:15;;;;;;;8.40;6.88;;;;;;;13.75;68.56;99013.81;5091677;28;20031;-74
2022/06/11 01:02:42;;;;;;;10.70;7.13;;;;;;;13.74;68.46;99014.94;5091010;28;20012;-74
2022/06/11 01:05:11;;;;;;;10.60;7.22;;;;;;;13.72;68.66;99015.25;5091364;28;20035;-74
2022/06/11 01:07:56;;;;;;;16.27;10.07;;;;;;;13.67;68.74;99007.06;5091032;28;20048;-74
2022/06/11 01:10:25;;;;;;;13.18;10.27;;;;;;;13.66;68.80;99013.69;5091014;28;20028;-71
2022/06/11 01:12:53;;;;;;;16.17;11.02;;;;;;;13.63;68.91;99023.41;5090654;28;20039;-72
2022/06/11 01:15:33;;;;;;;16.30;12.25;;;;;;;13.59;68.81;99022.38;5090837;28;20034;-73
2022/06/11 01:18:22;;;;;;;14.93;11.43;;;;;;;13.54;68.68;99015.00;5088313;28;20455;-72
2022/06/11 01:21:09;;;;;;;13.35;9.80;;;;;;;13.52;68.78;99021.94;5091618;28;20016;-72
2022/06/11 01:24:25;;;;;;;11.45;9.38;;;;;;;13.46;68.91;99018.44;5088013;28;20475;-72
2022/06/11 01:26:59;;;;;;;11.63;9.18;;;;;;;13.41;68.93;99021.31;5056014;28;20040;-72
2022/06/11 01:29:46;;;;;;;10.07;8.60;;;;;;;13.37;68.97;99034.00;5091264;28;20111;-72
2022/06/11 01:32:21;;;;;;;14.60;8.70;;;;;;;13.39;69.19;99023.50;5090783;28;20468;-72
2022/06/11 01:35:01;;;;;;;11.23;8.27;;;;;;;13.43;69.82;99021.81;5090845;28;20035;-72
2022/06/11 01:37:41;;;;;;;9.38;7.40;;;;;;;13.42;69.59;99027.63;5090284;28;20501;-72
2022/06/11 01:40:27;;;;;;;;;;;;;;;13.43;69.45;99035.59;5090872;28;20388;-72
2022/06/11 01:43:14;;;;;;;11.05;8.10;;;;;;;13.42;69.61;99019.34;5089466;28;20428;-72
2022/06/11 01:45:40;;;;;;;11.65;7.97;;;;;;;13.39;69.97;99018.00;5089361;28;20020;-72
2022/06/11 01:48:10;;;;;;;8.52;7.63;;;;;;;13.36;69.53;99024.91;5090621;28;20173;-72
2022/06/11 01:50:39;;;;;;;11.98;9.10;;;;;;;13.33;69.74;99021.94;5087612;28;20077;-72
2022/06/11 01:53:36;;;;;;;11.35;8.70;;;;;;;13.29;69.80;99026.41;5089875;28;20034;-72
2022/06/11 01:56:20;;;;;;;10.75;8.95;;;;;;;13.24;69.92;99025.38;5089468;28;20476;-72
2022/06/11 01:58:48;;;;;;;12.57;8.77;;;;;;;13.24;70.25;99016.31;5089922;28;20043;-72
2022/06/11 02:01:33;;;;;;;11.93;8.30;;;;;;;13.22;69.76;99013.03;5089599;28;20032;-72
2022/06/11 02:04:14;;;;;;;9.07;8.02;;;;;;;13.16;70.03;99017.00;5088481;28;20055;-72
2022/06/11 02:06:55;;;;;;;9.98;8.93;;;;;;;13.15;70.14;99018.09;5088052;28;20052;-72
2022/06/11 02:09:30;;;;;;;14.48;8.57;;;;;;;13.10;70.23;99010.72;5089487;28;20395;-73
2022/06/11 02:12:18;;;;;;;9.98;8.98;;;;;;;13.08;70.06;99012.97;5092083;28;20020;-72
2022/06/11 02:14:53;;;;;;;13.10;8.38;;;;;;;13.05;70.09;99011.63;5088744;28;20028;-72
2022/06/11 02:17:25;;;;;;;10.88;8.65;;;;;;;13.03;70.50;99010.31;5089044;28;20685;-72
2022/06/11 02:19:57;;;;;;;10.90;8.48;;;;;;;13.00;70.53;99008.16;5089659;28;20020;-72
2022/06/11 02:22:32;;;;;;;13.98;8.68;;;;;;;13.00;70.46;99011.72;5089555;28;20016;-72
2022/06/11 02:25:18;;;;;;;12.57;7.95;;;;;;;12.99;70.07;99007.31;5089660;28;20058;-72
2022/06/11 02:27:47;;;;;;;10.77;8.57;;;;;;;12.95;70.41;99007.13;5089384;28;20468;-72
2022/06/11 02:30:18;;;;;;;12.48;8.50;;;;;;;12.95;70.04;99011.78;5089654;28;20051;-72
2022/06/11 02:32:43;;;;;;;10.82;8.23;;;;;;;12.92;70.50;99013.22;5088730;28;20056;-72
2022/06/11 02:35:13;;;;;;;11.68;7.93;;;;;;;12.91;70.39;99008.00;5089201;28;20058;-73
2022/06/11 02:37:43;;;;;;;10.27;8.05;;;;;;;12.88;70.89;99014.91;5089540;28;20024;-72
2022/06/11 02:40:19;;;;;;;;;;;;;;;12.88;70.30;99028.69;5090005;28;20483;-72
2022/06/11 02:42:46;;;;;;;13.48;9.70;;;;;;;12.86;70.45;99022.66;5118917;27;20015;-72
2022/06/11 02:45:13;;;;;;;12.18;9.00;;;;;;;12.84;70.75;99021.34;5087604;28;20039;-73
2022/06/11 02:47:40;;;;;;;15.50;9.88;;;;;;;12.84;71.07;99029.59;5090228;28;20438;-73
2022/06/11 02:50:07;;;;;;;12.13;9.52;;;;;;;12.83;70.55;99031.50;5089740;28;20055;-72
2022/06/11 02:52:33;;;;;;;16.05;11.20;;;;;;;12.83;70.56;99031.50;5086990;28;20044;-72
2022/06/11 02:54:59;;;;;;;12.63;10.00;;;;;;;12.83;70.87;99037.00;5087372;28;20020;-73
2022/06/11 02:57:29;;;;;;;11.55;9.85;;;;;;;12.83;71.07;99037.00;5089463;28;20503;-72
2022/06/11 02:59:55;;;;;;;12.27;9.43;;;;;;;12.86;71.24;99038.34;5089469;28;20020;-72
2022/06/11 03:02:23;;;;;;;12.15;9.57;;;;;;;12.86;70.94;99039.19;5089493;28;20061;-73
2022/06/11 03:04:49;;;;;;;12.15;9.18;;;;;;;12.87;70.91;99040.81;5087554;28;20113;-73
2022/06/11 03:07:15;;;;;;;12.50;9.50;;;;;;;12.87;71.42;99038.06;5098977;28;20028;-72
2022/06/11 03:09:43;;;;;;;15.23;10.30;;;;;;;12.88;71.02;99042.44;5109335;28;20026;-72
2022/06/11 03:12:11;;;;;;;13.90;9.82;;;;;;;12.91;71.29;99043.78;5110600;27;20065;-72
2022/06/11 03:14:37;;;;;;;15.57;10.43;;;;;;;12.94;71.23;99045.94;5109157;28;20027;-72
2022/06/11 03:17:04;;;;;;;15.73;10.70;;;;;;;12.97;71.15;99041.78;5109259;28;20031;-73
2022/06/11 03:19:29;;;;;;;13.63;10.20;;;;;;;12.99;71.55;99040.34;5110608;28;20012;-72
2022/06/11 03:21:56;;;;;;;14.77;9.93;;;;;;;12.99;71.28;99034.06;5110101;28;20016;-72
2022/06/11 03:24:24;;;;;;;12.73;10.18;;;;;;;13.02;71.78;99041.72;5110228;28;20901;-73
2022/06/11 03:26:50;;;;;;;14.70;9.88;;;;;;;13.04;71.71;99040.28;5091932;28;20050;-73
2022/06/11 03:29:16;;;;;;;14.60;9.60;;;;;;;13.09;71.56;99040.22;5110257;28;20028;-73
2022/06/11 03:31:44;;;;;;;14.85;9.80;;;;;;;13.13;71.57;99039.63;5109510;28;20322;-72
2022/06/11 03:34:10;;;;;;;16.20;9.88;;;;;;;13.16;72.10;99048.09;5110008;28;20490;-72
2022/06/11 03:36:35;;;;;;;14.15;9.85;;;;;;;13.18;71.76;99036.78;5109566;28;20027;-73
2022/06/11 03:39:01;;;;;;;15.55;9.82;;;;;;;13.23;71.68;99048.53;5110523;28;20020;-72
2022/06/11 03:41:27;;;;;;;16.25;9.75;;;;;;;13.29;72.01;99045.69;5109821;28;20081;-72
2022/06/11 03:43:52;;;;;;;14.68;9.60;;;;;;;13.34;71.89;99054.69;5109671;28;20088;-73
2022/06/11 03:46:20;;;;;;;11.88;10.05;;;;;;;13.43;72.38;99051.28;5109581;28;20471;-73
2022/06/11 03:48:46;;;;;;;13.90;10.75;;;;;;;13.51;72.82;99058.88;5109603;28;20110;-73
2022/06/11 03:51:12;;;;;;;13.27;10.43;;;;;;;13.58;72.39;99061.25;5109655;28;20016;-72
2022/06/11 03:53:40;;;;;;;14.85;10.60;;;;;;;13.64;72.52;99060.88;5108662;28;20036;-72
2022/06/11 03:56:08;;;;;;;12.80;10.70;;;;;;;13.72;72.70;99062.09;5106621;28;20023;-73
2022/06/11 03:58:35;;;;;;;17.08;11.88;;;;;;;13.78;72.69;99055.38;5110026;28;20031;-73
2022/06/11 04:01:15;;;;;;;14.32;10.43;;;;;;;13.87;72.48;99060.19;5091393;28;20034;-72
2022/06/11 04:03:55;;;;;;;12.05;9.70;;;;;;;13.93;72.81;99061.72;5108930;28;20451;-72
2022/06/11 04:06:30;;;;;;;12.25;10.27;;;;;;;14.04;72.72;99071.47;5088970;28;20028;-72
2022/06/11 04:08:56;;;;;;;13.68;9.93;;;;;;;14.11;72.93;99062.78;5108403;28;20028;-72
2022/06/11 04:11:22;;;;;;;15.73;10.20;;;;;;;14.20;72.85;99068.41;5111372;28;20024;-72
2022/06/11 04:13:51;;;;;;;13.02;9.88;;;;;;;14.27;72.91;99072.41;5109200;28;20019;-73
2022/06/11 04:16:30;;;;;;;13.80;9.57;;;;;;;14.33;72.83;99064.81;5109496;28;20115;-72
2022/06/11 04:18:59;;;;;;;15.80;10.37;;;;;;;14.42;72.94;99067.72;5107410;28;20031;-72
2022/06/11 04:21:26;;;;;;;12.80;9.55;;;;;;;14.48;72.86;99069.22;5092819;28;20113;-72
2022/06/11 04:23:54;;;;;;;15.70;9.80;;;;;;;14.53;72.75;99077.41;5112715;28;20015;-73
2022/06/11 04:26:26;;;;;;;12.85;10.43;;;;;;;14.58;72.87;99077.28;5109587;28;20062;-72
2022/06/11 04:28:52;;;;;;;14.65;10.82;;;;;;;14.63;72.81;99076.38;5111408;28;20038;-73
2022/06/11 04:31:18;;;;;;;13.38;10.23;;;;;;;14.69;72.79;99071.59;5113663;28;20043;-73
2022/06/11 04:33:47;;;;;;;16.10;11.70;;;;;;;14.73;72.93;99076.19;5113042;28;20054;-72
2022/06/11 04:36:14;;;;;;;16.92;11.55;;;;;;;14.77;72.72;99079.16;5095141;28;20020;-72
2022/06/11 04:38:39;;;;;;;15.25;11.73;;;;;;;14.84;72.76;99081.50;5113992;27;20467;-73
2022/06/11 04:41:07;;;;;;;15.70;12.10;;;;;;;14.90;72.84;99083.03;5113569;28;20099;-73
2022/06/11 04:43:32;;;;;;;14.00;12.23;;;;;;;14.95;72.88;99079.31;5111340;28;20426;-73
2022/06/11 04:45:57;;;;;;;15.98;12.05;;;;;;;15.00;72.78;99080.03;5113027;28;20023;-73
2022/06/11 04:48:23;;;;;;;18.42;12.07;;;;;;;15.05;72.98;99078.28;5113450;28;20103;-73
2022/06/11 04:50:49;;;;;;;15.70;12.10;;;;;;;15.09;72.75;99080.09;5113244;28;20392;-73
2022/06/11 04:53:14;;;;;;;15.75;11.32;;;;;;;15.16;72.75;99083.25;5112251;28;20053;-73
2022/06/11 04:55:40;;;;;;;14.35;10.52;;;;;;;15.24;72.94;99078.13;5113056;28;20095;-73
2022/06/11 04:58:06;;;;;;;14.45;10.63;;;;;;;15.27;72.76;99075.56;5113001;28;20039;-72
2022/06/11 05:00:33;;;;;;;14.55;10.07;;;;;;;15.35;72.89;99078.69;5094692;28;20443;-72
2022/06/11 05:02:59;;;;;;;12.35;10.15;;;;;;;15.42;72.57;99073.56;5112775;28;20088;-72
2022/06/11 05:05:25;;;;;;;14.15;9.93;;;;;;;15.49;72.83;99076.69;5112899;28;20441;-72
2022/06/11 05:07:51;;;;;;;13.18;9.68;;;;;;;15.55;72.86;99080.97;5112772;28;20105;-73
2022/06/11 05:10:20;;;;;;;13.35;9.77;;;;;;;15.64;72.99;99072.75;5112845;28;20039;-73
2022/06/11 05:12:46;;;;;;;13.25;9.93;;;;;;;15.71;72.92;99067.56;5113407;27;20024;-73
2022/06/11 05:15:12;;;;;;;13.60;9.60;;;;;;;15.78;72.54;99075.44;5112806;28;20486;-73
2022/06/11 05:17:38;;;;;;;14.32;9.63;;;;;;;15.84;72.28;99067.81;5112393;28;20491;-72
2022/06/11 05:20:05;;;;;;;13.40;10.65;;;;;;;15.91;72.32;99079.28;5112973;28;20016;-73
2022/06/11 05:22:30;;;;;;;14.75;10.45;;;;;;;15.99;72.34;99081.28;5094161;28;20033;-72
2022/06/11 05:24:56;;;;;;;12.88;9.40;;;;;;;16.04;72.25;99081.16;5112798;28;20122;-72
2022/06/11 05:27:23;;;;;;;12.07;10.18;;;;;;;16.09;72.15;99082.94;5113119;28;20024;-72
2022/06/11 05:29:56;;;;;;;14.43;9.70;;;;;;;16.16;72.01;99086.09;5109729;28;20487;-71
2022/06/11 05:32:29;;;;;;;12.07;9.10;;;;;;;16.21;71.88;99085.94;5112817;28;20398;-72
2022/06/11 05:34:57;;;;;;;14.98;9.65;;;;;;;16.29;71.88;99087.13;5095120;28;20031;-73
2022/06/11 05:37:23;;;;;;;12.18;8.68;;;;;;;16.34;72.26;99083.38;5112867;28;20038;-73
2022/06/11 05:39:49;;;;;;;12.30;10.25;;;;;;;16.39;71.94;99088.78;5112959;28;20391;-72
2022/06/11 05:42:17;;;;;;;14.05;9.55;;;;;;;16.45;71.61;99089.47;5112805;28;20064;-73
2022/06/11 05:44:42;;;;;;;12.82;9.93;;;;;;;16.51;71.79;99083.44;5112541;28;20034;-72
2022/06/11 05:47:12;;;;;;;15.10;10.95;;;;;;;16.58;71.45;99088.50;5095452;28;20035;-72
2022/06/11 05:49:41;;;;;;;16.98;11.32;;;;;;;16.63;71.42;99084.78;5113580;28;20016;-73
2022/06/11 05:52:13;;;;;;;14.43;11.18;;;;;;;16.67;71.60;99089.34;5111566;28;20072;-72
2022/06/11 05:54:40;;;;;;;15.50;11.10;;;;;;;16.72;71.22;99087.56;5113686;28;20028;-72
2022/06/11 05:57:11;;;;;;;16.90;10.95;;;;;;;16.77;71.17;99087.44;5092177;28;20035;-72
2022/06/11 05:59:43;;;;;;;15.95;10.77;;;;;;;16.83;71.10;99091.69;5113185;28;20061;-73
2022/06/11 06:02:12;;;;;;;14.60;10.07;;;;;;;16.88;70.90;99097.09;5093478;28;20028;-72
2022/06/11 06:04:37;;;;;;;18.80;11.18;;;;;;;16.95;71.19;99104.91;5115331;27;20051;-73
2022/06/11 06:07:05;;;;;;;17.33;11.43;;;;;;;17.01;70.96;99097.28;5094741;28;20109;-72
2022/06/11 06:09:30;;;;;;;16.10;11.55;;;;;;;17.07;70.79;99095.97;5112778;28;20030;-72
2022/06/11 06:11:56;;;;;;;18.00;11.63;;;;;;;17.11;71.07;99100.56;5111931;28;20024;-72
2022/06/11 06:14:21;;;;;;;16.67;10.27;;;;;;;17.17;70.91;99089.31;5112930;28;20028;-73
2022/06/11 06:16:47;;;;;;;15.52;11.50;;;;;;;17.24;70.79;99101.56;5111116;28;20040;-72
2022/06/11 06:19:12;;;;;;;13.32;9.68;;;;;;;17.29;70.67;99099.78;5110899;28;20066;-72
2022/06/11 06:21:38;;;;;;;16.45;10.07;;;;;;;17.35;70.45;99098.44;5107760;28;20455;-72
2022/06/11 06:24:05;;;;;;;13.52;9.30;;;;;;;17.42;70.35;99098.78;5094208;28;20495;-73
2022/06/11 06:26:31;;;;;;;11.45;8.40;;;;;;;17.50;70.23;99100.72;5112442;28;20024;-72
2022/06/11 06:28:56;;;;;;;11.00;7.45;;;;;;;17.60;70.20;99101.53;5112131;28;20031;-72
2022/06/11 06:31:22;;;;;;;11.43;8.40;;;;;;;17.66;70.14;99103.81;5109694;28;20065;-72
2022/06/11 06:33:47;;;;;;;12.88;7.57;;;;;;;17.73;69.95;99106.09;5111268;28;20031;-73
2022/06/11 06:36:14;;;;;;;9.50;6.22;;;;;;;17.80;69.51;99102.84;5109401;28;20038;-72
2022/06/11 06:38:41;;;;;;;10.13;5.05;;;;;;;17.89;69.31;99100.03;5112067;28;20035;-72
2022/06/11 06:41:07;;;;;;;7.63;5.10;;;;;;;17.94;69.03;99102.63;5111616;28;20550;-72
2022/06/11 06:43:33;;;;;;;9.20;5.25;;;;;;;18.02;69.02;99101.00;5110576;28;20055;-73
2022/06/11 06:45:59;;;;;;;8.43;5.78;;;;;;;18.10;68.62;99109.34;5109394;28;20089;-72
2022/06/11 06:48:24;;;;;;;9.35;6.22;;;;;;;18.17;68.26;99103.25;5112101;28;20390;-73
2022/06/11 06:50:50;;;;;;;8.90;5.95;;;;;;;18.25;67.95;99105.19;5092209;28;20130;-73
2022/06/11 06:53:15;;;;;;;9.05;6.15;;;;;;;18.33;67.98;99097.19;5111216;28;20089;-72
2022/06/11 06:55:41;;;;;;;7.07;6.00;;;;;;;18.43;67.94;99105.13;5112344;28;20437;-72
2022/06/11 06:58:07;;;;;;;10.85;6.00;;;;;;;18.50;67.36;99102.63;5112124;28;20023;-73
2022/06/11 07:00:32;;;;;;;8.60;5.97;;;;;;;18.52;66.99;99103.13;5108226;28;20467;-72
2022/06/11 07:02:58;;;;;;;7.13;3.03;;;;;;;18.55;66.60;99113.56;5090511;28;20387;-72
2022/06/11 07:05:25;;;;;;;3.50;2.53;;;;;;;18.60;66.19;99115.34;5111667;28;20111;-73
2022/06/11 07:07:52;;;;;;;5.07;2.55;;;;;;;18.64;65.29;99119.06;5112451;27;20044;-72
2022/06/11 07:10:20;;;;;;;4.15;2.30;;;;;;;18.66;65.17;99116.78;5112003;28;20076;-72
2022/06/11 07:12:45;;;;;;;5.43;2.35;;;;;;;18.70;64.92;99119.72;5089628;28;20027;-73
2022/06/11 07:15:11;;;;;;;3.47;2.20;;;;;;;18.73;64.75;99113.50;5109695;28;20028;-72
2022/06/11 07:17:43;;;;;;;3.42;2.10;;;;;;;18.75;64.07;99113.94;5090889;28;20040;-72
2022/06/11 07:20:17;;;;;;;5.35;2.65;;;;;;;18.80;64.13;99112.97;5105625;28;20035;-72
2022/06/11 07:22:57;;;;;;;3.47;2.20;;;;;;;18.87;64.23;99110.47;5111640;28;20085;-72
2022/06/11 07:25:24;;;;;;;3.50;2.30;;;;;;;18.92;63.89;99121.41;5111864;28;20458;-72
2022/06/11 07:27:59;;;;;;;3.08;2.30;;;;;;;18.96;63.32;99121.56;5109783;28;20107;-72
2022/06/11 07:30:27;;;;;;;2.80;2.28;;;;;;;18.99;62.25;99123.66;5111844;28;20472;-72
2022/06/11 07:32:56;;;;;;;4.30;2.10;;;;;;;19.02;62.19;99128.56;5109528;28;20395;-72
2022/06/11 07:35:22;;;;;;;3.45;2.40;;;;;;;19.07;61.74;99127.53;5103449;28;20113;-71
2022/06/11 07:37:50;;;;;;;3.22;2.10;;;;;;;19.11;61.70;99128.50;5111631;28;20027;-72
2022/06/11 07:40:18;;;;;;;2.50;2.13;;;;;;;19.17;61.79;99127.16;5092905;28;20030;-71
2022/06/11 07:42:43;;;;;;;2.83;2.38;;;;;;;19.26;62.00;99127.91;5110729;28;20069;-71
2022/06/11 07:45:10;;;;;;;2.22;2.00;;;;;;;19.36;61.73;99135.03;5111407;28;20039;-72
2022/06/11 07:47:54;;;;;;;3.40;1.60;;;;;;;19.44;60.48;99134.16;5110419;28;20110;-72
2022/06/11 07:50:21;;;;;;;1.15;1.05;;;;;;;19.51;60.61;99125.25;5111560;28;20057;-72
2022/06/11 07:52:46;;;;;;;2.72;1.60;;;;;;;19.60;59.20;99130.72;5110636;28;20039;-73
2022/06/11 07:55:12;;;;;;;2.90;1.35;;;;;;;19.62;58.43;99128.44;5111155;28;20034;-72
2022/06/11 07:57:39;;;;;;;3.65;1.90;;;;;;;19.64;58.67;99132.50;5108483;28;20678;-73
2022/06/11 08:00:09;;;;;;;2.95;1.70;;;;;;;19.69;58.72;99130.69;5112499;28;20047;-73
2022/06/11 08:02:34;;;;;;;2.88;1.70;;;;;;;19.70;58.32;99137.88;5108092;28;20032;-73
2022/06/11 08:05:00;;;;;;;2.42;1.50;;;;;;;19.72;57.72;99141.13;5110947;28;20030;-73
2022/06/11 08:07:27;;;;;;;4.65;1.40;;;;;;;19.74;57.02;99133.25;5104695;28;20047;-73
2022/06/11 08:09:56;;;;;;;2.47;1.48;;;;;;;19.75;56.63;99135.69;5108905;28;20023;-71
2022/06/11 08:12:21;;;;;;;3.40;1.50;;;;;;;19.75;56.48;99134.88;5110357;28;20106;-73
2022/06/11 08:14:47;;;;;;;2.55;1.30;;;;;;;19.82;56.25;99139.88;5111066;28;20106;-72
2022/06/11 08:17:12;;;;;;;2.78;1.40;;;;;;;19.85;56.22;99136.41;5109955;28;20080;-73
2022/06/11 08:19:37;;;;;;;2.13;1.20;;;;;;;19.92;56.18;99134.72;5111155;28;20027;-73
2022/06/11 08:22:03;;;;;;;2.75;1.48;;;;;;;19.97;55.89;99135.69;5110715;28;20479;-72
2022/06/11 08:24:28;;;;;;;1.35;1.20;;;;;;;20.01;55.82;99125.50;5110687;28;20395;-72
2022/06/11 08:26:54;;;;;;;1.63;1.30;;;;;;;20.05;55.86;99126.44;5092101;28;20109;-73
2022/06/11 08:29:19;;;;;;;3.38;1.33;;;;;;;20.13;54.79;99130.28;5111371;28;20037;-73
2022/06/11 08:31:44;;;;;;;1.20;1.10;;;;;;;20.14;55.05;99129.94;5109329;28;20035;-74
2022/06/11 08:34:10;;;;;;;1.48;1.00;;;;;;;20.18;54.33;99125.28;5111036;28;20117;-74
2022/06/11 08:36:35;;;;;;;2.53;1.10;;;;;;;20.23;54.43;99121.47;5110604;28;20032;-74
2022/06/11 08:39:00;;;;;;;1.80;1.15;;;;;;;20.26;54.42;99120.78;5111008;28;20027;-75
2022/06/11 08:41:35;;;;;;;2.75;1.40;;;;;;;20.29;53.75;99124.84;5110039;28;20444;-76
2022/06/11 08:44:13;;;;;;;1.40;1.13;;;;;;;20.32;53.55;99118.59;5106034;28;20023;-74
2022/06/11 08:46:42;;;;;;;1.27;1.17;;;;;;;20.34;53.14;99117.09;5090010;28;20061;-75
2022/06/11 08:49:16;;;;;;;1.38;1.20;;;;;;;20.40;53.53;99117.69;5110396;28;20548;-75
2022/06/11 08:51:44;;;;;;;1.45;1.23;;;;;;;20.53;53.71;99124.06;5107912;28;20127;-74
2022/06/11 08:54:33;;;;;;;2.95;1.35;;;;;;;20.65;53.54;99124.09;5108637;28;20024;-74
2022/06/11 08:57:04;;;;;;;1.58;1.40;;;;;;;20.73;52.93;99121.53;5108963;28;20106;-74
2022/06/11 08:59:47;;;;;;;2.55;1.40;;;;;;;20.80;52.93;99117.03;5110111;28;20053;-74
2022/06/11 09:02:38;;;;;;;3.15;1.33;;;;;;;20.87;53.25;99113.66;5102894;28;20110;-74
2022/06/11 09:05:26;;;;;;;2.60;1.45;;;;;;;20.94;52.75;99113.88;5109977;28;20022;-74
2022/06/11 09:08:07;;;;;;;2.95;1.40;;;;;;;20.95;51.71;99111.91;5111387;28;20051;-74
2022/06/11 09:10:54;;;;;;;2.03;1.50;;;;;;;20.94;51.79;99113.88;5109887;28;20043;-74
2022/06/11 09:13:33;;;;;;;2.30;1.70;;;;;;;20.93;51.55;99117.81;5108807;28;20110;-75
2022/06/11 09:16:04;;;;;;;1.98;1.40;;;;;;;20.92;51.87;99118.19;5109346;28;20487;-73
2022/06/11 09:18:59;;;;;;;5.07;1.40;;;;;;;20.91;51.36;99113.78;5113529;27;20088;-73
2022/06/11 09:21:41;;;;;;;2.15;1.30;;;;;;;20.90;51.08;99114.94;5109012;28;20024;-74
2022/06/11 09:24:28;;;;;;;1.17;1.08;;;;;;;20.95;51.34;99107.13;5111930;28;20031;-73
2022/06/11 09:26:56;;;;;;;1.98;1.02;;;;;;;21.08;51.49;99104.34;5111637;28;20031;-73
2022/06/11 09:29:33;;;;;;;2.30;1.20;;;;;;;21.24;51.39;99110.81;5112313;28;20122;-72
2022/06/11 09:32:01;;;;;;;2.15;1.30;;;;;;;21.40;51.40;99099.72;5108272;27;20032;-75
2022/06/11 09:34:50;;;;;;;3.83;2.15;;;;;;;21.58;51.50;99095.84;5110411;28;20491;-74
2022/06/11 09:37:46;;;;;;;2.03;1.38;;;;;;;21.68;50.98;99093.38;5088084;28;20495;-73
2022/06/11 09:40:21;;;;;;;1.95;1.60;;;;;;;21.85;51.07;99099.81;5109632;27;20290;-72
2022/06/11 09:42:56;;;;;;;2.50;0.70;;;;;;;21.88;49.82;99090.72;5114074;27;20031;-72
2022/06/11 09:45:54;;;;;;;5.88;1.20;;;;;;;21.87;50.17;99089.09;5112267;27;20106;-71
2022/06/11 09:48:46;;;;;;;2.25;1.10;;;;;;;21.87;48.95;99089.09;5045208;27;20061;-77
2022/06/11 09:51:22;;;;;;;2.80;1.00;;;;;;;21.88;49.50;99085.13;5111751;27;20062;-78
2022/06/11 09:54:25;;;;;;;1.40;1.00;;;;;;;21.92;48.65;99091.63;5116877;27;20038;-79
2022/06/11 09:56:56;;;;;;;1.30;1.02;;;;;;;21.92;47.27;99088.81;5110422;28;20427;-73
2022/06/11 09:59:51;;;;;;;2.05;1.10;;;;;;;21.83;47.26;99089.00;5114191;27;20110;-76
2022/06/11 10:02:37;;;;;;;2.42;1.00;;;;;;;21.80;48.39;99089.72;5088055;28;20039;-79
2022/06/11 10:05:13;;;;;;;1.30;1.00;;;;;;;21.83;48.54;99083.41;5109939;28;20425;-79
2022/06/11 10:07:43;;;;;;;2.38;1.30;;;;;;;21.85;47.47;99091.41;5111764;27;20099;-84
2022/06/11 10:10:23;;;;;;;3.90;1.10;;;;;;;21.75;46.81;99080.78;5115473;27;20475;-78
2022/06/11 10:12:57;;;;;;;2.20;1.15;;;;;;;21.72;46.97;99073.94;5113055;27;20020;-77
2022/06/11 10:15:29;;;;;;;2.67;1.70;;;;;;;21.76;47.46;99077.63;5104511;27;20023;-80
2022/06/11 10:18:10;;;;;;;1.83;1.27;;;;;;;21.77;44.62;99073.66;5107626;28;20063;-80
2022/06/11 10:20:43;;;;;;;2.17;1.20;;;;;;;21.71;44.80;99075.91;5110354;27;20023;-74
2022/06/11 10:23:16;;;;;;;1.27;1.10;;;;;;;21.68;44.01;99073.00;5110495;28;20031;-74
2022/06/11 10:26:34;;;;;;;1.85;1.00;;;;;;;21.73;45.64;99074.75;5109648;28;20081;-76
2022/06/11 10:29:18;;;;;;;2.50;1.30;;;;;;;21.83;46.18;99061.06;5059483;28;20036;-78
2022/06/11 10:31:52;;;;;;;2.45;1.50;;;;;;;21.89;46.01;99067.19;5106301;28;20020;-73
2022/06/11 10:34:20;;;;;;;2.80;1.30;;;;;;;21.97;46.24;99063.44;5108435;27;20032;-77
2022/06/11 10:36:46;;;;;;;1.02;1.00;;;;;;;22.07;45.71;99075.25;5108972;27;20015;-78
2022/06/11 10:39:27;;;;;;;3.75;1.10;;;;;;;22.09;45.26;99054.16;5112960;27;20035;-78
2022/06/11 10:42:15;;;;;;;3.05;1.30;;;;;;;22.16;44.96;99061.94;5092556;28;20026;-82
2022/06/11 10:44:41;;;;;;;2.38;1.10;;;;;;;22.18;44.59;99058.78;5104949;27;20028;-81
2022/06/11 10:47:28;;;;;;;1.95;1.10;;;;;;;22.25;44.79;99059.75;5112046;27;20032;-79
2022/06/11 10:50:07;;;;;;;1.30;0.82;;;;;;;22.26;44.66;99047.41;5103736;27;20031;-78
2022/06/11 10:52:45;;;;;;;2.08;1.00;;;;;;;22.34;43.95;99051.22;5105511;28;20024;-77
2022/06/11 10:55:18;;;;;;;3.53;1.20;;;;;;;22.35;43.22;99046.41;5092874;28;20028;-77
2022/06/11 10:57:49;;;;;;;2.38;1.00;;;;;;;22.37;42.47;99055.25;5109721;28;20026;-78
2022/06/11 11:00:14;;;;;;;2.10;1.05;;;;;;;22.40;42.34;99054.53;5110012;28;20020;-79
2022/06/11 11:02:48;;;;;;;2.40;0.98;;;;;;;22.43;43.15;99049.06;5108895;28;20076;-79
2022/06/11 11:05:16;;;;;;;1.30;0.98;;;;;;;22.57;43.67;99056.16;5110604;28;20092;-76
2022/06/11 11:07:44;;;;;;;1.88;0.82;;;;;;;22.73;44.46;99053.34;5110972;28;20551;-74
2022/06/11 11:10:23;;;;;;;1.30;0.90;;;;;;;22.86;43.33;99051.22;5110124;28;20033;-79
2022/06/11 11:12:55;;;;;;;3.80;0.85;;;;;;;22.90;42.27;99044.56;5089858;28;20126;-80
2022/06/11 11:15:26;;;;;;;2.35;0.90;;;;;;;22.89;41.78;99050.50;5110476;28;20023;-83
2022/06/11 11:17:58;;;;;;;1.20;1.05;;;;;;;22.87;40.04;99039.69;5109003;28;20418;-78
2022/06/11 11:20:36;;;;;;;3.45;1.02;;;;;;;22.87;41.77;99038.88;5111275;28;20031;-77
2022/06/11 11:23:05;;;;;;;2.30;1.10;;;;;;;22.93;42.35;99036.63;5108670;28;20100;-76
2022/06/11 11:25:47;;;;;;;1.63;1.13;;;;;;;23.01;42.43;99035.59;5110717;28;20067;-76
2022/06/11 11:28:54;;;;;;;1.83;1.00;;;;;;;23.09;40.39;99040.16;5109503;28;20068;-77
2022/06/11 11:31:31;;;;;;;4.80;1.10;;;;;;;23.10;41.02;99040.97;5106291;28;20144;-76
2022/06/11 11:34:11;;;;;;;2.15;1.20;;;;;;;23.14;41.77;99036.28;5110045;28;20028;-76
2022/06/11 11:36:37;;;;;;;1.98;1.05;;;;;;;23.24;42.37;99032.91;5110680;28;20031;-76
2022/06/11 11:39:17;;;;;;;1.42;0.90;;;;;;;23.30;42.35;99034.22;5091784;28;20015;-76
2022/06/11 11:42:10;;;;;;;1.15;1.00;;;;;;;23.35;40.60;99027.56;5109541;28;20039;-77
2022/06/11 11:44:40;;;;;;;1.15;0.90;;;;;;;23.40;41.13;99029.22;5109270;28;20487;-76
2022/06/11 11:47:15;;;;;;;2.60;0.95;;;;;;;23.43;41.59;99017.28;5110497;28;20027;-75
2022/06/11 11:49:41;;;;;;;1.67;0.82;;;;;;;23.49;41.29;99027.03;5092649;28;20015;-77